sensor_id;sensor_type;location;lat;lon;timestamp;pressure;altitude;pressure_sealevel;temperature;humidity
6032;BME280;3044;43.232;27.972;2022-12-05T00:00:51;44178.97;;;-143.84;100.00
6032;BME280;3044;43.232;27.972;2022-12-05T00:03:19;44146.63;;;-143.84;100.00
6032;BME280;3044;43.232;27.972;2022-12-05T00:05:46;44184.69;;;-143.84;100.00
6032;BME280;3044;43.232;27.972;2022-12-05T00:08:13;44142.81;;;-143.84;100.00
6032;BME280;3044;43.232;27.972;2022-12-05T00:10:40;44163.75;;;-143.84;100.00
6032;BME280;3044;43.232;27.972;2022-12-05T00:13:09;44137.09;;;-143.84;100.00
6032;BME280;3044;43.232;27.972;2022-12-05T00:15:37;44125.69;;;-143.84;100.00
6032;BME280;3044;43.232;27.972;2022-12-05T00:18:05;44097.13;;;-143.84;100.00
6032;BME280;3044;43.232;27.972;2022-12-05T00:20:32;44078.09;;;-143.84;100.00
6032;BME280;3044;43.232;27.972;2022-12-05T00:22:59;44100.94;;;-143.84;100.00
6032;BME280;3044;43.232;27.972;2022-12-05T00:25:27;44070.47;;;-143.84;100.00
6032;BME280;3044;43.232;27.972;2022-12-05T00:27:54;44074.28;;;-143.84;100.00
6032;BME280;3044;43.232;27.972;2022-12-05T00:30:22;44032.41;;;-143.84;100.00
6032;BME280;3044;43.232;27.972;2022-12-05T00:32:49;44036.22;;;-143.84;100.00
6032;BME280;3044;43.232;27.972;2022-12-05T00:35:17;44032.41;;;-143.84;100.00
6032;BME280;3044;43.232;27.972;2022-12-05T00:37:44;44009.56;;;-143.84;100.00
6032;BME280;3044;43.232;27.972;2022-12-05T00:40:11;44022.88;;;-143.84;100.00
6032;BME280;3044;43.232;27.972;2022-12-05T00:42:38;44019.06;;;-143.84;100.00
6032;BME280;3044;43.232;27.972;2022-12-05T00:45:06;44017.16;;;-143.84;100.00
6032;BME280;3044;43.232;27.972;2022-12-05T00:47:35;43998.13;;;-143.84;100.00
6032;BME280;3044;43.232;27.972;2022-12-05T00:50:03;44013.38;;;-143.84;100.00
6032;BME280;3044;43.232;27.972;2022-12-05T00:52:31;44028.59;;;-143.84;100.00
6032;BME280;3044;43.232;27.972;2022-12-05T00:54:58;44001.94;;;-143.84;100.00
6032;BME280;3044;43.232;27.972;2022-12-05T00:57:25;44030.50;;;-143.84;100.00
6032;BME280;3044;43.232;27.972;2022-12-05T00:59:53;43975.28;;;-143.84;100.00
6032;BME280;3044;43.232;27.972;2022-12-05T01:02:20;44026.69;;;-143.84;100.00
6032;BME280;3044;43.232;27.972;2022-12-05T01:04:48;43984.81;;;-143.84;100.00
6032;BME280;3044;43.232;27.972;2022-12-05T01:07:15;44000.03;;;-143.84;100.00
6032;BME280;3044;43.232;27.972;2022-12-05T01:09:43;44005.75;;;-143.84;100.00
6032;BME280;3044;43.232;27.972;2022-12-05T01:12:10;44011.47;;;-143.84;100.00
6032;BME280;3044;43.232;27.972;2022-12-05T01:14:37;43996.22;;;-143.84;100.00
6032;BME280;3044;43.232;27.972;2022-12-05T01:17:04;44022.88;;;-143.84;100.00
6032;BME280;3044;43.232;27.972;2022-12-05T01:19:32;44000.03;;;-143.84;100.00
6032;BME280;3044;43.232;27.972;2022-12-05T01:22:01;43998.13;;;-143.84;100.00
6032;BME280;3044;43.232;27.972;2022-12-05T01:24:28;43996.22;;;-143.84;100.00
6032;BME280;3044;43.232;27.972;2022-12-05T01:26:56;44009.56;;;-143.84;100.00
6032;BME280;3044;43.232;27.972;2022-12-05T01:29:24;44003.84;;;-143.84;100.00
6032;BME280;3044;43.232;27.972;2022-12-05T01:31:51;44009.56;;;-143.84;100.00
6032;BME280;3044;43.232;27.972;2022-12-05T01:34:19;43975.28;;;-143.84;100.00
6032;BME280;3044;43.232;27.972;2022-12-05T01:36:46;43967.69;;;-143.84;100.00
6032;BME280;3044;43.232;27.972;2022-12-05T01:39:15;43990.53;;;-143.84;100.00
6032;BME280;3044;43.232;27.972;2022-12-05T01:41:45;43992.41;;;-143.84;100.00
6032;BME280;3044;43.232;27.972;2022-12-05T01:47:17;44007.66;;;-143.84;100.00
6032;BME280;3044;43.232;27.972;2022-12-05T01:49:45;43994.31;;;-143.84;100.00
6032;BME280;3044;43.232;27.972;2022-12-05T01:52:15;44009.56;;;-143.84;100.00
6032;BME280;3044;43.232;27.972;2022-12-05T01:54:47;43992.41;;;-143.84;100.00
6032;BME280;3044;43.232;27.972;2022-12-05T01:57:16;44026.69;;;-143.84;100.00
6032;BME280;3044;43.232;27.972;2022-12-05T01:59:47;44007.66;;;-143.84;100.00
6032;BME280;3044;43.232;27.972;2022-12-05T02:02:16;43984.81;;;-143.84;100.00
6032;BME280;3044;43.232;27.972;2022-12-05T02:04:49;44022.88;;;-143.84;100.00
6032;BME280;3044;43.232;27.972;2022-12-05T02:07:21;43979.09;;;-143.84;100.00
6032;BME280;3044;43.232;27.972;2022-12-05T02:09:50;44017.16;;;-143.84;100.00
6032;BME280;3044;43.232;27.972;2022-12-05T02:12:19;44041.91;;;-143.84;100.00
6032;BME280;3044;43.232;27.972;2022-12-05T02:14:56;44015.25;;;-143.84;100.00
6032;BME280;3044;43.232;27.972;2022-12-05T02:17:34;44017.16;;;-143.84;100.00
6032;BME280;3044;43.232;27.972;2022-12-05T02:20:13;44007.66;;;-143.84;100.00
6032;BME280;3044;43.232;27.972;2022-12-05T02:23:15;44015.25;;;-143.84;100.00
6032;BME280;3044;43.232;27.972;2022-12-05T02:26:07;44028.59;;;-143.84;100.00
6032;BME280;3044;43.232;27.972;2022-12-05T02:29:02;44019.06;;;-143.84;100.00
6032;BME280;3044;43.232;27.972;2022-12-05T02:31:40;44040.00;;;-143.84;100.00
6032;BME280;3044;43.232;27.972;2022-12-05T02:34:15;44028.59;;;-143.84;100.00
6032;BME280;3044;43.232;27.972;2022-12-05T02:36:48;44034.31;;;-143.84;100.00
6032;BME280;3044;43.232;27.972;2022-12-05T02:39:25;44003.84;;;-143.84;100.00
6032;BME280;3044;43.232;27.972;2022-12-05T02:42:02;44011.47;;;-143.84;100.00
6032;BME280;3044;43.232;27.972;2022-12-05T02:44:36;44032.41;;;-143.84;100.00
6032;BME280;3044;43.232;27.972;2022-12-05T02:47:07;43982.91;;;-143.84;100.00
6032;BME280;3044;43.232;27.972;2022-12-05T02:49:36;44005.75;;;-143.84;100.00
6032;BME280;3044;43.232;27.972;2022-12-05T02:52:11;44015.25;;;-143.84;100.00
6032;BME280;3044;43.232;27.972;2022-12-05T02:54:41;43994.31;;;-143.84;100.00
6032;BME280;3044;43.232;27.972;2022-12-05T02:57:11;44003.84;;;-143.84;100.00
6032;BME280;3044;43.232;27.972;2022-12-05T02:59:39;44015.25;;;-143.84;100.00
6032;BME280;3044;43.232;27.972;2022-12-05T03:02:19;44013.38;;;-143.84;100.00
6032;BME280;3044;43.232;27.972;2022-12-05T03:04:48;44059.03;;;-143.84;100.00
6032;BME280;3044;43.232;27.972;2022-12-05T03:07:16;44001.94;;;-143.84;100.00
6032;BME280;3044;43.232;27.972;2022-12-05T03:09:47;44036.22;;;-143.84;100.00
6032;BME280;3044;43.232;27.972;2022-12-05T03:12:17;44005.75;;;-143.84;100.00
6032;BME280;3044;43.232;27.972;2022-12-05T03:14:49;43994.31;;;-143.84;100.00
6032;BME280;3044;43.232;27.972;2022-12-05T03:17:22;44020.97;;;-143.84;100.00
6032;BME280;3044;43.232;27.972;2022-12-05T03:19:54;44017.16;;;-143.84;100.00
6032;BME280;3044;43.232;27.972;2022-12-05T03:22:26;43998.13;;;-143.84;100.00
6032;BME280;3044;43.232;27.972;2022-12-05T03:24:55;43990.53;;;-143.84;100.00
6032;BME280;3044;43.232;27.972;2022-12-05T03:27:26;44009.56;;;-143.84;100.00
6032;BME280;3044;43.232;27.972;2022-12-05T03:30:01;43998.13;;;-143.84;100.00
6032;BME280;3044;43.232;27.972;2022-12-05T03:32:36;44007.66;;;-143.84;100.00
6032;BME280;3044;43.232;27.972;2022-12-05T03:35:09;44017.16;;;-143.84;100.00
6032;BME280;3044;43.232;27.972;2022-12-05T03:37:44;44011.47;;;-143.84;100.00
6032;BME280;3044;43.232;27.972;2022-12-05T03:40:20;43973.38;;;-143.84;100.00
6032;BME280;3044;43.232;27.972;2022-12-05T03:42:54;43990.53;;;-143.84;100.00
6032;BME280;3044;43.232;27.972;2022-12-05T03:45:27;44007.66;;;-143.84;100.00
6032;BME280;3044;43.232;27.972;2022-12-05T03:48:06;44017.16;;;-143.84;100.00
6032;BME280;3044;43.232;27.972;2022-12-05T03:50:38;44066.66;;;-143.84;100.00
6032;BME280;3044;43.232;27.972;2022-12-05T03:53:11;44015.25;;;-143.84;100.00
6032;BME280;3044;43.232;27.972;2022-12-05T03:55:42;44060.94;;;-143.84;100.00
6032;BME280;3044;43.232;27.972;2022-12-05T03:58:16;44064.75;;;-143.84;100.00
6032;BME280;3044;43.232;27.972;2022-12-05T04:00:45;44072.38;;;-143.84;100.00
6032;BME280;3044;43.232;27.972;2022-12-05T04:03:22;44038.09;;;-143.84;100.00
6032;BME280;3044;43.232;27.972;2022-12-05T04:05:54;44028.59;;;-143.84;100.00
6032;BME280;3044;43.232;27.972;2022-12-05T04:08:26;44041.91;;;-143.84;100.00
6032;BME280;3044;43.232;27.972;2022-12-05T04:10:59;44066.66;;;-143.84;100.00
6032;BME280;3044;43.232;27.972;2022-12-05T04:13:31;44017.16;;;-143.84;100.00
6032;BME280;3044;43.232;27.972;2022-12-05T04:16:02;44015.25;;;-143.84;100.00
6032;BME280;3044;43.232;27.972;2022-12-05T04:18:55;44034.31;;;-143.84;100.00
6032;BME280;3044;43.232;27.972;2022-12-05T04:21:28;44028.59;;;-143.84;100.00
6032;BME280;3044;43.232;27.972;2022-12-05T04:24:07;44019.06;;;-143.84;100.00
6032;BME280;3044;43.232;27.972;2022-12-05T04:27:03;44019.06;;;-143.84;100.00
6032;BME280;3044;43.232;27.972;2022-12-05T04:29:38;44003.84;;;-143.84;100.00
6032;BME280;3044;43.232;27.972;2022-12-05T04:32:09;44028.59;;;-143.84;100.00
6032;BME280;3044;43.232;27.972;2022-12-05T04:34:39;43998.13;;;-143.84;100.00
6032;BME280;3044;43.232;27.972;2022-12-05T04:37:10;43977.19;;;-143.84;100.00
6032;BME280;3044;43.232;27.972;2022-12-05T04:39:41;44001.94;;;-143.84;100.00
6032;BME280;3044;43.232;27.972;2022-12-05T04:42:15;43931.50;;;-143.84;100.00
6032;BME280;3044;43.232;27.972;2022-12-05T04:44:47;43982.91;;;-143.84;100.00
6032;BME280;3044;43.232;27.972;2022-12-05T04:47:17;44001.94;;;-143.84;100.00
6032;BME280;3044;43.232;27.972;2022-12-05T04:49:47;43979.09;;;-143.84;100.00
6032;BME280;3044;43.232;27.972;2022-12-05T04:52:15;43975.28;;;-143.84;100.00
6032;BME280;3044;43.232;27.972;2022-12-05T04:54:45;43994.31;;;-143.84;100.00
6032;BME280;3044;43.232;27.972;2022-12-05T04:57:17;44011.47;;;-143.84;100.00
6032;BME280;3044;43.232;27.972;2022-12-05T04:59:45;43963.88;;;-143.84;100.00
6032;BME280;3044;43.232;27.972;2022-12-05T05:02:17;43981.00;;;-143.84;100.00
6032;BME280;3044;43.232;27.972;2022-12-05T05:04:48;43960.06;;;-143.84;100.00
6032;BME280;3044;43.232;27.972;2022-12-05T05:07:18;43990.53;;;-143.84;100.00
6032;BME280;3044;43.232;27.972;2022-12-05T05:09:45;43931.50;;;-143.84;100.00
6032;BME280;3044;43.232;27.972;2022-12-05T05:12:13;43963.88;;;-143.84;100.00
6032;BME280;3044;43.232;27.972;2022-12-05T05:14:40;43977.19;;;-143.84;100.00
6032;BME280;3044;43.232;27.972;2022-12-05T05:17:07;43994.31;;;-143.84;100.00
6032;BME280;3044;43.232;27.972;2022-12-05T05:19:34;44001.94;;;-143.84;100.00
6032;BME280;3044;43.232;27.972;2022-12-05T05:22:03;44009.56;;;-143.84;100.00
6032;BME280;3044;43.232;27.972;2022-12-05T05:24:30;43988.63;;;-143.84;100.00
6032;BME280;3044;43.232;27.972;2022-12-05T05:26:57;43998.13;;;-143.84;100.00
6032;BME280;3044;43.232;27.972;2022-12-05T05:29:24;44005.75;;;-143.84;100.00
6032;BME280;3044;43.232;27.972;2022-12-05T05:31:52;44019.06;;;-143.84;100.00
6032;BME280;3044;43.232;27.972;2022-12-05T05:34:19;44030.50;;;-143.84;100.00
6032;BME280;3044;43.232;27.972;2022-12-05T05:36:50;44009.56;;;-143.84;100.00
6032;BME280;3044;43.232;27.972;2022-12-05T05:39:19;44047.63;;;-143.84;100.00
6032;BME280;3044;43.232;27.972;2022-12-05T05:41:46;44028.59;;;-143.84;100.00
6032;BME280;3044;43.232;27.972;2022-12-05T05:44:13;44026.69;;;-143.84;100.00
6032;BME280;3044;43.232;27.972;2022-12-05T05:46:40;44051.44;;;-143.84;100.00
6032;BME280;3044;43.232;27.972;2022-12-05T05:49:09;44036.22;;;-143.84;100.00
6032;BME280;3044;43.232;27.972;2022-12-05T05:51:36;44040.00;;;-143.84;100.00
6032;BME280;3044;43.232;27.972;2022-12-05T05:54:03;44083.78;;;-143.84;100.00
6032;BME280;3044;43.232;27.972;2022-12-05T05:56:32;44030.50;;;-143.84;100.00
6032;BME280;3044;43.232;27.972;2022-12-05T05:59:00;44087.59;;;-143.84;100.00
6032;BME280;3044;43.232;27.972;2022-12-05T06:01:28;44108.53;;;-143.84;100.00
6032;BME280;3044;43.232;27.972;2022-12-05T06:03:56;44114.25;;;-143.84;100.00
6032;BME280;3044;43.232;27.972;2022-12-05T06:06:24;44099.03;;;-143.84;100.00
6032;BME280;3044;43.232;27.972;2022-12-05T06:08:51;44123.78;;;-143.84;100.00
6032;BME280;3044;43.232;27.972;2022-12-05T06:11:21;44129.47;;;-143.84;100.00
6032;BME280;3044;43.232;27.972;2022-12-05T06:13:49;44055.25;;;-143.84;100.00
6032;BME280;3044;43.232;27.972;2022-12-05T06:16:17;44047.63;;;-143.84;100.00
6032;BME280;3044;43.232;27.972;2022-12-05T06:18:45;44028.59;;;-143.84;100.00
6032;BME280;3044;43.232;27.972;2022-12-05T06:21:13;44051.44;;;-143.84;100.00
6032;BME280;3044;43.232;27.972;2022-12-05T06:23:40;44020.97;;;-143.84;100.00
6032;BME280;3044;43.232;27.972;2022-12-05T06:26:10;44022.88;;;-143.84;100.00
6032;BME280;3044;43.232;27.972;2022-12-05T06:28:38;44015.25;;;-143.84;100.00
6032;BME280;3044;43.232;27.972;2022-12-05T06:31:08;44009.56;;;-143.84;100.00
6032;BME280;3044;43.232;27.972;2022-12-05T06:33:35;44015.25;;;-143.84;100.00
6032;BME280;3044;43.232;27.972;2022-12-05T06:36:04;44003.84;;;-143.84;100.00
6032;BME280;3044;43.232;27.972;2022-12-05T06:38:32;44003.84;;;-143.84;100.00
6032;BME280;3044;43.232;27.972;2022-12-05T06:41:02;43975.28;;;-143.84;100.00
6032;BME280;3044;43.232;27.972;2022-12-05T06:43:30;44017.16;;;-143.84;100.00
6032;BME280;3044;43.232;27.972;2022-12-05T06:45:57;43979.09;;;-143.84;100.00
6032;BME280;3044;43.232;27.972;2022-12-05T06:48:25;44007.66;;;-143.84;100.00
6032;BME280;3044;43.232;27.972;2022-12-05T06:50:53;43998.13;;;-143.84;100.00
6032;BME280;3044;43.232;27.972;2022-12-05T06:53:20;44003.84;;;-143.84;100.00
6032;BME280;3044;43.232;27.972;2022-12-05T06:55:54;44009.56;;;-143.84;100.00
6032;BME280;3044;43.232;27.972;2022-12-05T06:58:22;43982.91;;;-143.84;100.00
6032;BME280;3044;43.232;27.972;2022-12-05T07:00:50;44005.75;;;-143.84;100.00
6032;BME280;3044;43.232;27.972;2022-12-05T07:03:36;44024.78;;;-143.84;100.00
6032;BME280;3044;43.232;27.972;2022-12-05T07:06:04;43975.28;;;-143.84;100.00
6032;BME280;3044;43.232;27.972;2022-12-05T07:08:32;44024.78;;;-143.84;100.00
6032;BME280;3044;43.232;27.972;2022-12-05T07:11:00;44032.41;;;-143.84;100.00
6032;BME280;3044;43.232;27.972;2022-12-05T07:13:28;44020.97;;;-143.84;100.00
6032;BME280;3044;43.232;27.972;2022-12-05T07:15:55;44022.88;;;-143.84;100.00
6032;BME280;3044;43.232;27.972;2022-12-05T07:18:23;44059.03;;;-143.84;100.00
6032;BME280;3044;43.232;27.972;2022-12-05T07:20:57;44055.25;;;-143.84;100.00
6032;BME280;3044;43.232;27.972;2022-12-05T07:23:25;44108.53;;;-143.84;99.96
6032;BME280;3044;43.232;27.972;2022-12-05T07:25:53;44171.38;;;-143.84;100.00
6032;BME280;3044;43.232;27.972;2022-12-05T07:28:20;44159.94;;;-143.84;99.26
6032;BME280;3044;43.232;27.972;2022-12-05T07:30:47;44188.50;;;-143.84;99.38
6032;BME280;3044;43.232;27.972;2022-12-05T07:33:14;44222.75;;;-143.84;98.92
6032;BME280;3044;43.232;27.972;2022-12-05T07:35:41;44213.25;;;-143.84;99.11
6032;BME280;3044;43.232;27.972;2022-12-05T07:38:10;44274.16;;;-143.84;98.83
6032;BME280;3044;43.232;27.972;2022-12-05T07:40:37;44310.34;;;-143.84;98.75
6032;BME280;3044;43.232;27.972;2022-12-05T07:43:04;44411.22;;;-143.84;98.46
6032;BME280;3044;43.232;27.972;2022-12-05T07:45:33;44443.59;;;-143.84;98.37
6032;BME280;3044;43.232;27.972;2022-12-05T07:48:01;44460.72;;;-143.84;98.44
6032;BME280;3044;43.232;27.972;2022-12-05T07:50:28;44483.56;;;-143.84;97.91
6032;BME280;3044;43.232;27.972;2022-12-05T07:52:55;44506.44;;;-143.84;98.18
6032;BME280;3044;43.232;27.972;2022-12-05T07:55:24;44595.91;;;-143.84;97.99
6032;BME280;3044;43.232;27.972;2022-12-05T07:57:51;44649.22;;;-143.84;98.06
6032;BME280;3044;43.232;27.972;2022-12-05T08:00:19;44634.00;;;-143.84;97.89
6032;BME280;3044;43.232;27.972;2022-12-05T08:02:46;44698.72;;;-143.84;97.83
6032;BME280;3044;43.232;27.972;2022-12-05T08:05:14;44717.75;;;-143.84;97.24
6032;BME280;3044;43.232;27.972;2022-12-05T08:07:41;44757.75;;;-143.84;96.91
6032;BME280;3044;43.232;27.972;2022-12-05T08:10:09;44778.69;;;-143.84;97.12
6032;BME280;3044;43.232;27.972;2022-12-05T08:12:38;44778.69;;;-143.84;97.60
6032;BME280;3044;43.232;27.972;2022-12-05T08:15:06;44769.16;;;-143.84;97.27
6032;BME280;3044;43.232;27.972;2022-12-05T08:17:33;44771.06;;;-143.84;97.21
6032;BME280;3044;43.232;27.972;2022-12-05T08:20:01;44786.31;;;-143.84;97.18
6032;BME280;3044;43.232;27.972;2022-12-05T08:22:28;44702.53;;;-143.84;97.27
6032;BME280;3044;43.232;27.972;2022-12-05T08:24:55;44717.75;;;-143.84;97.75
6032;BME280;3044;43.232;27.972;2022-12-05T08:27:22;44759.66;;;-143.84;97.03
6032;BME280;3044;43.232;27.972;2022-12-05T08:29:52;44772.97;;;-143.84;97.03
6032;BME280;3044;43.232;27.972;2022-12-05T08:32:19;44832.00;;;-143.84;96.82
6032;BME280;3044;43.232;27.972;2022-12-05T08:34:46;44818.66;;;-143.84;96.47
6032;BME280;3044;43.232;27.972;2022-12-05T08:37:14;44875.78;;;-143.84;97.07
6032;BME280;3044;43.232;27.972;2022-12-05T08:39:41;44889.13;;;-143.84;96.45
6032;BME280;3044;43.232;27.972;2022-12-05T08:42:08;44948.16;;;-143.84;96.19
6032;BME280;3044;43.232;27.972;2022-12-05T08:44:35;44980.53;;;-143.84;95.82
6032;BME280;3044;43.232;27.972;2022-12-05T08:47:03;44938.63;;;-143.84;95.48
6032;BME280;3044;43.232;27.972;2022-12-05T08:49:31;44955.75;;;-143.84;95.84
6032;BME280;3044;43.232;27.972;2022-12-05T08:51:58;44972.91;;;-143.84;96.38
6032;BME280;3044;43.232;27.972;2022-12-05T08:54:25;44971.00;;;-143.84;95.96
6032;BME280;3044;43.232;27.972;2022-12-05T08:56:53;44972.91;;;-143.84;96.14
6032;BME280;3044;43.232;27.972;2022-12-05T08:59:20;44980.53;;;-143.84;96.16
6032;BME280;3044;43.232;27.972;2022-12-05T09:01:48;45009.09;;;-143.84;95.99
6032;BME280;3044;43.232;27.972;2022-12-05T09:04:17;44980.53;;;-143.84;95.36
6032;BME280;3044;43.232;27.972;2022-12-05T09:06:44;45026.22;;;-143.84;95.39
6032;BME280;3044;43.232;27.972;2022-12-05T09:09:11;45037.66;;;-143.84;95.41
6032;BME280;3044;43.232;27.972;2022-12-05T09:11:40;45047.16;;;-143.84;94.99
6032;BME280;3044;43.232;27.972;2022-12-05T09:14:10;45050.97;;;-143.84;95.05
6032;BME280;3044;43.232;27.972;2022-12-05T09:16:38;45039.53;;;-143.84;94.59
6032;BME280;3044;43.232;27.972;2022-12-05T09:19:10;45073.81;;;-143.84;94.23
6032;BME280;3044;43.232;27.972;2022-12-05T09:21:40;45127.13;;;-143.84;94.34
6032;BME280;3044;43.232;27.972;2022-12-05T09:24:09;45117.63;;;-143.84;93.97
6032;BME280;3044;43.232;27.972;2022-12-05T09:26:38;45119.53;;;-143.84;93.45
6032;BME280;3044;43.232;27.972;2022-12-05T09:29:05;45163.31;;;-143.84;93.52
6032;BME280;3044;43.232;27.972;2022-12-05T09:31:32;45140.47;;;-143.84;93.04
6032;BME280;3044;43.232;27.972;2022-12-05T09:34:01;45163.31;;;-143.84;93.15
6032;BME280;3044;43.232;27.972;2022-12-05T09:36:29;45182.38;;;-143.84;92.81
6032;BME280;3044;43.232;27.972;2022-12-05T09:39:01;45169.03;;;-143.84;92.79
6032;BME280;3044;43.232;27.972;2022-12-05T09:41:44;45127.13;;;-143.84;93.16
6032;BME280;3044;43.232;27.972;2022-12-05T09:44:42;45180.47;;;-143.84;92.71
6032;BME280;3044;43.232;27.972;2022-12-05T09:47:17;45121.44;;;-143.84;93.03
6032;BME280;3044;43.232;27.972;2022-12-05T09:49:52;45167.13;;;-143.84;92.43
6032;BME280;3044;43.232;27.972;2022-12-05T09:52:24;45176.66;;;-143.84;91.16
6032;BME280;3044;43.232;27.972;2022-12-05T09:54:54;45189.97;;;-143.84;91.33
6032;BME280;3044;43.232;27.972;2022-12-05T09:57:31;45201.41;;;-143.84;90.86
6032;BME280;3044;43.232;27.972;2022-12-05T10:00:00;45207.13;;;-143.84;90.84
6032;BME280;3044;43.232;27.972;2022-12-05T10:02:39;45199.50;;;-143.84;90.35
6032;BME280;3044;43.232;27.972;2022-12-05T10:05:14;45216.63;;;-143.84;89.64
6032;BME280;3044;43.232;27.972;2022-12-05T10:07:52;45229.97;;;-143.84;88.81
6032;BME280;3044;43.232;27.972;2022-12-05T10:10:33;45250.91;;;-143.84;89.17
6032;BME280;3044;43.232;27.972;2022-12-05T10:13:15;45247.09;;;-143.84;88.80
6032;BME280;3044;43.232;27.972;2022-12-05T10:15:49;45239.50;;;-143.84;88.42
6032;BME280;3044;43.232;27.972;2022-12-05T10:18:27;45243.31;;;-143.84;87.99
6032;BME280;3044;43.232;27.972;2022-12-05T10:20:59;45214.72;;;-143.84;88.53
6032;BME280;3044;43.232;27.972;2022-12-05T10:23:31;45197.59;;;-143.84;88.13
6032;BME280;3044;43.232;27.972;2022-12-05T10:26:04;45216.63;;;-143.84;87.77
6032;BME280;3044;43.232;27.972;2022-12-05T10:28:36;45222.34;;;-143.84;88.33
6032;BME280;3044;43.232;27.972;2022-12-05T10:31:08;45247.09;;;-143.84;88.42
6032;BME280;3044;43.232;27.972;2022-12-05T10:33:40;45205.22;;;-143.84;88.23
6032;BME280;3044;43.232;27.972;2022-12-05T10:36:10;45228.06;;;-143.84;88.16
6032;BME280;3044;43.232;27.972;2022-12-05T10:38:38;45222.34;;;-143.84;87.95
6032;BME280;3044;43.232;27.972;2022-12-05T10:41:10;45250.91;;;-143.84;87.90
6032;BME280;3044;43.232;27.972;2022-12-05T10:43:40;45233.78;;;-143.84;88.18
6032;BME280;3044;43.232;27.972;2022-12-05T10:46:09;45220.44;;;-143.84;88.05
6032;BME280;3044;43.232;27.972;2022-12-05T10:48:37;45212.84;;;-143.84;88.10
6032;BME280;3044;43.232;27.972;2022-12-05T10:51:06;45233.78;;;-143.84;87.88
6032;BME280;3044;43.232;27.972;2022-12-05T10:53:39;45247.09;;;-143.84;87.48
6032;BME280;3044;43.232;27.972;2022-12-05T10:56:39;45254.72;;;-143.84;87.67
6032;BME280;3044;43.232;27.972;2022-12-05T10:59:09;45269.97;;;-143.84;87.59
6032;BME280;3044;43.232;27.972;2022-12-05T11:01:38;45247.09;;;-143.84;87.80
6032;BME280;3044;43.232;27.972;2022-12-05T11:04:18;45228.06;;;-143.84;87.48
6032;BME280;3044;43.232;27.972;2022-12-05T11:06:51;45275.66;;;-143.84;87.28
6032;BME280;3044;43.232;27.972;2022-12-05T11:09:20;45214.72;;;-143.84;87.77
6032;BME280;3044;43.232;27.972;2022-12-05T11:12:02;45220.44;;;-143.84;87.58
6032;BME280;3044;43.232;27.972;2022-12-05T11:14:31;45220.44;;;-143.84;87.56
6032;BME280;3044;43.232;27.972;2022-12-05T11:17:02;45235.69;;;-143.84;87.54
6032;BME280;3044;43.232;27.972;2022-12-05T11:19:31;45239.50;;;-143.84;87.66
6032;BME280;3044;43.232;27.972;2022-12-05T11:21:59;45250.91;;;-143.84;87.23
6032;BME280;3044;43.232;27.972;2022-12-05T11:24:27;45235.69;;;-143.84;86.58
6032;BME280;3044;43.232;27.972;2022-12-05T11:26:56;45256.63;;;-143.84;86.19
6032;BME280;3044;43.232;27.972;2022-12-05T11:29:30;45247.09;;;-143.84;85.64
6032;BME280;3044;43.232;27.972;2022-12-05T11:31:58;45203.31;;;-143.84;85.72
6032;BME280;3044;43.232;27.972;2022-12-05T11:34:30;45249.00;;;-143.84;85.74
6032;BME280;3044;43.232;27.972;2022-12-05T11:37:04;45229.97;;;-143.84;86.03
6032;BME280;3044;43.232;27.972;2022-12-05T11:39:32;45241.41;;;-143.84;86.24
6032;BME280;3044;43.232;27.972;2022-12-05T11:42:18;45239.50;;;-143.84;86.68
6032;BME280;3044;43.232;27.972;2022-12-05T11:48:02;45222.34;;;-143.84;86.20
6032;BME280;3044;43.232;27.972;2022-12-05T11:50:39;45239.50;;;-143.84;86.37
6032;BME280;3044;43.232;27.972;2022-12-05T11:53:29;45237.59;;;-143.84;85.74
6032;BME280;3044;43.232;27.972;2022-12-05T11:56:05;45256.63;;;-143.84;86.05
6032;BME280;3044;43.232;27.972;2022-12-05T11:58:44;45237.59;;;-143.84;85.86
6032;BME280;3044;43.232;27.972;2022-12-05T12:01:27;45250.91;;;-143.84;86.30
6032;BME280;3044;43.232;27.972;2022-12-05T12:04:15;45252.81;;;-143.84;85.93
6032;BME280;3044;43.232;27.972;2022-12-05T12:06:52;45269.97;;;-143.84;86.03
6032;BME280;3044;43.232;27.972;2022-12-05T12:09:32;45233.78;;;-143.84;85.87
6032;BME280;3044;43.232;27.972;2022-12-05T12:12:08;45250.91;;;-143.84;86.22
6032;BME280;3044;43.232;27.972;2022-12-05T12:14:45;45235.69;;;-143.84;86.45
6032;BME280;3044;43.232;27.972;2022-12-05T12:17:20;45271.88;;;-143.84;86.39
6032;BME280;3044;43.232;27.972;2022-12-05T12:23:02;45254.72;;;-143.84;87.03
6032;BME280;3044;43.232;27.972;2022-12-05T12:25:43;45266.16;;;-143.84;86.58
6032;BME280;3044;43.232;27.972;2022-12-05T12:28:31;45268.06;;;-143.84;87.05
6032;BME280;3044;43.232;27.972;2022-12-05T12:31:08;45235.69;;;-143.84;87.07
6032;BME280;3044;43.232;27.972;2022-12-05T12:33:47;45239.50;;;-143.84;87.23
6032;BME280;3044;43.232;27.972;2022-12-05T12:36:18;45231.88;;;-143.84;87.23
6032;BME280;3044;43.232;27.972;2022-12-05T12:39:04;45243.31;;;-143.84;87.02
6032;BME280;3044;43.232;27.972;2022-12-05T12:42:02;45233.78;;;-143.84;87.21
6032;BME280;3044;43.232;27.972;2022-12-05T12:44:59;45212.84;;;-143.84;86.79
6032;BME280;3044;43.232;27.972;2022-12-05T12:47:39;45224.25;;;-143.84;87.31
6032;BME280;3044;43.232;27.972;2022-12-05T12:50:17;45220.44;;;-143.84;87.38
6032;BME280;3044;43.232;27.972;2022-12-05T12:53:18;45228.06;;;-143.84;87.23
6032;BME280;3044;43.232;27.972;2022-12-05T12:55:57;45239.50;;;-143.84;87.49
6032;BME280;3044;43.232;27.972;2022-12-05T12:58:40;45237.59;;;-143.84;87.45
6032;BME280;3044;43.232;27.972;2022-12-05T13:01:15;45207.13;;;-143.84;87.37
6032;BME280;3044;43.232;27.972;2022-12-05T13:03:50;45262.34;;;-143.84;87.67
6032;BME280;3044;43.232;27.972;2022-12-05T13:06:27;45229.97;;;-143.84;87.48
6032;BME280;3044;43.232;27.972;2022-12-05T13:08:58;45241.41;;;-143.84;87.60
6032;BME280;3044;43.232;27.972;2022-12-05T13:11:34;45205.22;;;-143.84;87.84
6032;BME280;3044;43.232;27.972;2022-12-05T13:14:03;45216.63;;;-143.84;87.59
6032;BME280;3044;43.232;27.972;2022-12-05T13:16:38;45247.09;;;-143.84;87.93